sensor_id;sensor_type;location;lat;lon;timestamp;temperature;humidity
33271;DHT22;53180;51.344;6.152;2022-11-13T00:01:21;7.30;86.70
33271;DHT22;53180;51.344;6.152;2022-11-13T00:03:50;7.40;86.50
33271;DHT22;53180;51.344;6.152;2022-11-13T00:06:19;7.40;86.60
33271;DHT22;53180;51.344;6.152;2022-11-13T00:08:52;7.50;86.60
33271;DHT22;53180;51.344;6.152;2022-11-13T00:11:21;7.60;86.30
33271;DHT22;53180;51.344;6.152;2022-11-13T00:13:49;7.60;86.10
33271;DHT22;53180;51.344;6.152;2022-11-13T00:16:19;7.70;86.10
33271;DHT22;53180;51.344;6.152;2022-11-13T00:18:48;7.80;86.00
33271;DHT22;53180;51.344;6.152;2022-11-13T00:21:18;7.80;86.10
33271;DHT22;53180;51.344;6.152;2022-11-13T00:23:49;7.80;86.30
33271;DHT22;53180;51.344;6.152;2022-11-13T00:26:20;7.80;86.10
33271;DHT22;53180;51.344;6.152;2022-11-13T00:28:51;7.90;85.80
33271;DHT22;53180;51.344;6.152;2022-11-13T00:31:20;7.90;85.50
33271;DHT22;53180;51.344;6.152;2022-11-13T00:33:50;7.90;85.30
33271;DHT22;53180;51.344;6.152;2022-11-13T00:36:38;8.00;85.20
33271;DHT22;53180;51.344;6.152;2022-11-13T00:39:08;8.00;85.00
33271;DHT22;53180;51.344;6.152;2022-11-13T00:41:36;8.00;84.90
33271;DHT22;53180;51.344;6.152;2022-11-13T00:44:05;8.00;85.10
33271;DHT22;53180;51.344;6.152;2022-11-13T00:46:36;8.00;84.80
33271;DHT22;53180;51.344;6.152;2022-11-13T00:49:04;7.80;84.70
33271;DHT22;53180;51.344;6.152;2022-11-13T00:51:32;7.70;84.90
33271;DHT22;53180;51.344;6.152;2022-11-13T00:54:01;7.60;84.60
33271;DHT22;53180;51.344;6.152;2022-11-13T00:56:31;7.60;85.20
33271;DHT22;53180;51.344;6.152;2022-11-13T00:58:59;7.50;84.90
33271;DHT22;53180;51.344;6.152;2022-11-13T01:01:28;7.50;85.20
33271;DHT22;53180;51.344;6.152;2022-11-13T01:03:56;7.60;85.30
33271;DHT22;53180;51.344;6.152;2022-11-13T01:06:26;7.50;85.50
33271;DHT22;53180;51.344;6.152;2022-11-13T01:08:56;7.50;85.50
33271;DHT22;53180;51.344;6.152;2022-11-13T01:11:27;7.60;85.10
33271;DHT22;53180;51.344;6.152;2022-11-13T01:13:59;7.60;85.30
33271;DHT22;53180;51.344;6.152;2022-11-13T01:16:27;7.60;85.00
33271;DHT22;53180;51.344;6.152;2022-11-13T01:18:56;7.60;85.10
33271;DHT22;53180;51.344;6.152;2022-11-13T01:21:26;7.70;84.80
33271;DHT22;53180;51.344;6.152;2022-11-13T01:23:55;7.70;84.40
33271;DHT22;53180;51.344;6.152;2022-11-13T01:26:25;7.70;84.40
33271;DHT22;53180;51.344;6.152;2022-11-13T01:28:55;7.90;83.80
33271;DHT22;53180;51.344;6.152;2022-11-13T01:31:27;8.00;83.20
33271;DHT22;53180;51.344;6.152;2022-11-13T01:33:57;8.20;82.60
33271;DHT22;53180;51.344;6.152;2022-11-13T01:36:27;8.40;81.90
33271;DHT22;53180;51.344;6.152;2022-11-13T01:38:56;8.50;81.80
33271;DHT22;53180;51.344;6.152;2022-11-13T01:41:26;8.50;81.20
33271;DHT22;53180;51.344;6.152;2022-11-13T01:43:57;8.60;81.00
33271;DHT22;53180;51.344;6.152;2022-11-13T01:46:30;8.60;81.40
33271;DHT22;53180;51.344;6.152;2022-11-13T01:49:17;8.60;81.40
33271;DHT22;53180;51.344;6.152;2022-11-13T01:51:52;8.60;81.10
33271;DHT22;53180;51.344;6.152;2022-11-13T01:54:25;8.60;81.10
33271;DHT22;53180;51.344;6.152;2022-11-13T01:56:56;8.50;81.00
33271;DHT22;53180;51.344;6.152;2022-11-13T01:59:28;8.50;81.20
33271;DHT22;53180;51.344;6.152;2022-11-13T02:02:00;8.50;81.20
33271;DHT22;53180;51.344;6.152;2022-11-13T02:04:29;8.50;81.40
33271;DHT22;53180;51.344;6.152;2022-11-13T02:07:00;8.50;81.60
33271;DHT22;53180;51.344;6.152;2022-11-13T02:09:34;8.40;81.80
33271;DHT22;53180;51.344;6.152;2022-11-13T02:12:05;8.40;82.00
33271;DHT22;53180;51.344;6.152;2022-11-13T02:14:35;8.40;81.80
33271;DHT22;53180;51.344;6.152;2022-11-13T02:17:10;8.40;81.80
33271;DHT22;53180;51.344;6.152;2022-11-13T02:19:43;8.30;82.10
33271;DHT22;53180;51.344;6.152;2022-11-13T02:22:18;8.30;82.30
33271;DHT22;53180;51.344;6.152;2022-11-13T02:24:53;8.30;82.10
33271;DHT22;53180;51.344;6.152;2022-11-13T02:27:26;8.30;82.00
33271;DHT22;53180;51.344;6.152;2022-11-13T02:29:58;8.30;82.40
33271;DHT22;53180;51.344;6.152;2022-11-13T02:32:26;8.30;82.00
33271;DHT22;53180;51.344;6.152;2022-11-13T02:34:54;8.30;81.90
33271;DHT22;53180;51.344;6.152;2022-11-13T02:37:22;8.30;81.80
33271;DHT22;53180;51.344;6.152;2022-11-13T02:39:52;8.30;81.90
33271;DHT22;53180;51.344;6.152;2022-11-13T02:42:20;8.20;81.80
33271;DHT22;53180;51.344;6.152;2022-11-13T02:44:48;8.20;81.90
33271;DHT22;53180;51.344;6.152;2022-11-13T02:47:17;8.10;82.30
33271;DHT22;53180;51.344;6.152;2022-11-13T02:49:45;8.00;82.00
33271;DHT22;53180;51.344;6.152;2022-11-13T02:52:13;7.90;82.60
33271;DHT22;53180;51.344;6.152;2022-11-13T02:54:42;7.70;83.00
33271;DHT22;53180;51.344;6.152;2022-11-13T02:57:11;7.70;83.20
33271;DHT22;53180;51.344;6.152;2022-11-13T02:59:40;7.60;82.90
33271;DHT22;53180;51.344;6.152;2022-11-13T03:02:08;7.60;83.60
33271;DHT22;53180;51.344;6.152;2022-11-13T03:04:37;7.50;83.20
33271;DHT22;53180;51.344;6.152;2022-11-13T03:07:25;7.50;83.00
33271;DHT22;53180;51.344;6.152;2022-11-13T03:09:53;7.30;83.50
33271;DHT22;53180;51.344;6.152;2022-11-13T03:12:23;7.20;83.50
33271;DHT22;53180;51.344;6.152;2022-11-13T03:14:52;7.20;84.10
33271;DHT22;53180;51.344;6.152;2022-11-13T03:17:20;7.10;83.90
33271;DHT22;53180;51.344;6.152;2022-11-13T03:19:48;7.10;83.70
33271;DHT22;53180;51.344;6.152;2022-11-13T03:22:17;7.10;84.20
33271;DHT22;53180;51.344;6.152;2022-11-13T03:24:45;7.00;84.20
33271;DHT22;53180;51.344;6.152;2022-11-13T03:27:13;6.90;84.00
33271;DHT22;53180;51.344;6.152;2022-11-13T03:29:43;6.90;84.10
33271;DHT22;53180;51.344;6.152;2022-11-13T03:32:11;6.90;84.60
33271;DHT22;53180;51.344;6.152;2022-11-13T03:34:39;6.80;84.60
33271;DHT22;53180;51.344;6.152;2022-11-13T03:37:08;6.80;84.70
33271;DHT22;53180;51.344;6.152;2022-11-13T03:39:37;6.70;84.20
33271;DHT22;53180;51.344;6.152;2022-11-13T03:42:05;6.70;84.20
33271;DHT22;53180;51.344;6.152;2022-11-13T03:44:33;6.70;84.60
33271;DHT22;53180;51.344;6.152;2022-11-13T03:47:03;6.80;84.80
33271;DHT22;53180;51.344;6.152;2022-11-13T03:49:31;6.90;84.80
33271;DHT22;53180;51.344;6.152;2022-11-13T03:52:00;6.90;84.60
33271;DHT22;53180;51.344;6.152;2022-11-13T03:54:28;7.00;84.60
33271;DHT22;53180;51.344;6.152;2022-11-13T03:56:56;7.00;84.50
33271;DHT22;53180;51.344;6.152;2022-11-13T03:59:25;7.10;84.40
33271;DHT22;53180;51.344;6.152;2022-11-13T04:01:53;7.10;84.40
33271;DHT22;53180;51.344;6.152;2022-11-13T04:04:23;7.10;84.20
33271;DHT22;53180;51.344;6.152;2022-11-13T04:06:52;7.20;84.20
33271;DHT22;53180;51.344;6.152;2022-11-13T04:09:20;7.10;84.00
33271;DHT22;53180;51.344;6.152;2022-11-13T04:11:48;7.00;84.10
33271;DHT22;53180;51.344;6.152;2022-11-13T04:14:17;7.00;83.20
33271;DHT22;53180;51.344;6.152;2022-11-13T04:16:45;6.90;83.80
33271;DHT22;53180;51.344;6.152;2022-11-13T04:19:13;6.80;83.80
33271;DHT22;53180;51.344;6.152;2022-11-13T04:21:43;6.80;83.40
33271;DHT22;53180;51.344;6.152;2022-11-13T04:24:11;6.70;83.20
33271;DHT22;53180;51.344;6.152;2022-11-13T04:26:40;6.50;83.50
33271;DHT22;53180;51.344;6.152;2022-11-13T04:29:08;6.40;84.10
33271;DHT22;53180;51.344;6.152;2022-11-13T04:31:36;6.30;84.20
33271;DHT22;53180;51.344;6.152;2022-11-13T04:34:04;6.20;84.10
33271;DHT22;53180;51.344;6.152;2022-11-13T04:36:33;6.10;84.90
33271;DHT22;53180;51.344;6.152;2022-11-13T04:39:03;6.10;84.90
33271;DHT22;53180;51.344;6.152;2022-11-13T04:41:31;6.20;84.90
33271;DHT22;53180;51.344;6.152;2022-11-13T04:44:21;6.20;84.80
33271;DHT22;53180;51.344;6.152;2022-11-13T04:46:49;6.30;85.00
33271;DHT22;53180;51.344;6.152;2022-11-13T04:49:18;6.40;85.10
33271;DHT22;53180;51.344;6.152;2022-11-13T04:51:46;6.50;85.00
33271;DHT22;53180;51.344;6.152;2022-11-13T04:54:16;6.60;84.70
33271;DHT22;53180;51.344;6.152;2022-11-13T04:56:50;6.60;84.70
33271;DHT22;53180;51.344;6.152;2022-11-13T04:59:18;6.70;84.30
33271;DHT22;53180;51.344;6.152;2022-11-13T05:01:46;6.90;84.00
33271;DHT22;53180;51.344;6.152;2022-11-13T05:04:15;7.00;83.50
33271;DHT22;53180;51.344;6.152;2022-11-13T05:06:46;7.10;83.10
33271;DHT22;53180;51.344;6.152;2022-11-13T05:09:16;7.20;82.60
33271;DHT22;53180;51.344;6.152;2022-11-13T05:11:44;7.30;82.50
33271;DHT22;53180;51.344;6.152;2022-11-13T05:14:13;7.50;81.70
33271;DHT22;53180;51.344;6.152;2022-11-13T05:16:41;7.60;81.20
33271;DHT22;53180;51.344;6.152;2022-11-13T05:19:10;7.80;80.60
33271;DHT22;53180;51.344;6.152;2022-11-13T05:21:38;7.90;80.40
33271;DHT22;53180;51.344;6.152;2022-11-13T05:24:09;8.00;79.80
33271;DHT22;53180;51.344;6.152;2022-11-13T05:26:39;8.10;79.70
33271;DHT22;53180;51.344;6.152;2022-11-13T05:29:07;8.10;79.60
33271;DHT22;53180;51.344;6.152;2022-11-13T05:31:36;8.10;79.20
33271;DHT22;53180;51.344;6.152;2022-11-13T05:34:04;8.10;79.50
33271;DHT22;53180;51.344;6.152;2022-11-13T05:36:33;8.10;79.20
33271;DHT22;53180;51.344;6.152;2022-11-13T05:39:01;8.10;79.20
33271;DHT22;53180;51.344;6.152;2022-11-13T05:41:30;8.10;79.30
33271;DHT22;53180;51.344;6.152;2022-11-13T05:44:00;8.10;79.30
33271;DHT22;53180;51.344;6.152;2022-11-13T05:46:29;8.10;79.10
33271;DHT22;53180;51.344;6.152;2022-11-13T05:48:58;8.20;78.50
33271;DHT22;53180;51.344;6.152;2022-11-13T05:51:30;8.10;78.50
33271;DHT22;53180;51.344;6.152;2022-11-13T05:53:59;8.10;78.50
33271;DHT22;53180;51.344;6.152;2022-11-13T05:56:30;8.10;78.60
33271;DHT22;53180;51.344;6.152;2022-11-13T05:59:03;8.10;78.60
33271;DHT22;53180;51.344;6.152;2022-11-13T06:01:33;8.10;78.60
33271;DHT22;53180;51.344;6.152;2022-11-13T06:04:04;8.00;78.80
33271;DHT22;53180;51.344;6.152;2022-11-13T06:06:33;8.00;78.80
33271;DHT22;53180;51.344;6.152;2022-11-13T06:09:03;8.00;78.50
33271;DHT22;53180;51.344;6.152;2022-11-13T06:11:32;8.10;78.50
33271;DHT22;53180;51.344;6.152;2022-11-13T06:14:02;8.10;78.20
33271;DHT22;53180;51.344;6.152;2022-11-13T06:16:33;8.20;77.30
33271;DHT22;53180;51.344;6.152;2022-11-13T06:19:06;8.30;77.20
33271;DHT22;53180;51.344;6.152;2022-11-13T06:21:37;8.30;76.80
33271;DHT22;53180;51.344;6.152;2022-11-13T06:24:07;8.40;76.50
33271;DHT22;53180;51.344;6.152;2022-11-13T06:26:38;8.50;76.00
33271;DHT22;53180;51.344;6.152;2022-11-13T06:29:10;8.60;75.50
33271;DHT22;53180;51.344;6.152;2022-11-13T06:31:39;8.60;75.50
33271;DHT22;53180;51.344;6.152;2022-11-13T06:34:08;8.70;74.80
33271;DHT22;53180;51.344;6.152;2022-11-13T06:36:36;8.70;74.60
33271;DHT22;53180;51.344;6.152;2022-11-13T06:39:05;8.70;74.70
33271;DHT22;53180;51.344;6.152;2022-11-13T06:41:36;8.80;74.40
33271;DHT22;53180;51.344;6.152;2022-11-13T06:44:05;8.80;73.70
33271;DHT22;53180;51.344;6.152;2022-11-13T06:46:34;8.90;73.50
33271;DHT22;53180;51.344;6.152;2022-11-13T06:49:02;8.80;73.80
33271;DHT22;53180;51.344;6.152;2022-11-13T06:51:31;8.80;73.90
33271;DHT22;53180;51.344;6.152;2022-11-13T06:53:59;8.90;74.10
33271;DHT22;53180;51.344;6.152;2022-11-13T06:56:28;8.80;73.90
33271;DHT22;53180;51.344;6.152;2022-11-13T06:58:56;8.90;73.70
33271;DHT22;53180;51.344;6.152;2022-11-13T07:01:25;8.90;73.60
33271;DHT22;53180;51.344;6.152;2022-11-13T07:03:55;8.90;73.60
33271;DHT22;53180;51.344;6.152;2022-11-13T07:06:23;8.90;74.10
33271;DHT22;53180;51.344;6.152;2022-11-13T07:08:51;9.00;73.10
33271;DHT22;53180;51.344;6.152;2022-11-13T07:11:21;9.00;73.30
33271;DHT22;53180;51.344;6.152;2022-11-13T07:13:50;9.00;73.00
33271;DHT22;53180;51.344;6.152;2022-11-13T07:16:18;9.00;72.20
33271;DHT22;53180;51.344;6.152;2022-11-13T07:18:50;9.20;71.60
33271;DHT22;53180;51.344;6.152;2022-11-13T07:21:21;9.20;71.30
33271;DHT22;53180;51.344;6.152;2022-11-13T07:23:50;9.30;70.50
33271;DHT22;53180;51.344;6.152;2022-11-13T07:26:18;9.40;69.90
33271;DHT22;53180;51.344;6.152;2022-11-13T07:28:47;9.50;69.10
33271;DHT22;53180;51.344;6.152;2022-11-13T07:31:16;9.50;68.90
33271;DHT22;53180;51.344;6.152;2022-11-13T07:33:47;9.60;67.60
33271;DHT22;53180;51.344;6.152;2022-11-13T07:36:16;9.70;67.50
33271;DHT22;53180;51.344;6.152;2022-11-13T07:38:46;9.70;66.60
33271;DHT22;53180;51.344;6.152;2022-11-13T07:41:14;9.80;65.60
33271;DHT22;53180;51.344;6.152;2022-11-13T07:43:43;9.90;64.90
33271;DHT22;53180;51.344;6.152;2022-11-13T07:46:11;10.00;64.00
33271;DHT22;53180;51.344;6.152;2022-11-13T07:48:39;9.90;64.60
33271;DHT22;53180;51.344;6.152;2022-11-13T07:51:08;9.90;63.20
33271;DHT22;53180;51.344;6.152;2022-11-13T07:53:36;10.10;62.30
33271;DHT22;53180;51.344;6.152;2022-11-13T07:56:06;10.10;62.30
33271;DHT22;53180;51.344;6.152;2022-11-13T07:58:35;10.20;61.50
33271;DHT22;53180;51.344;6.152;2022-11-13T08:01:04;10.20;62.60
33271;DHT22;53180;51.344;6.152;2022-11-13T08:03:33;10.30;61.50
33271;DHT22;53180;51.344;6.152;2022-11-13T08:06:03;10.30;61.40
33271;DHT22;53180;51.344;6.152;2022-11-13T08:08:33;10.50;61.50
33271;DHT22;53180;51.344;6.152;2022-11-13T08:11:03;10.50;60.70
33271;DHT22;53180;51.344;6.152;2022-11-13T08:13:34;10.50;60.50
33271;DHT22;53180;51.344;6.152;2022-11-13T08:16:03;10.60;60.40
33271;DHT22;53180;51.344;6.152;2022-11-13T08:18:32;10.60;60.00
33271;DHT22;53180;51.344;6.152;2022-11-13T08:21:01;10.70;60.20
33271;DHT22;53180;51.344;6.152;2022-11-13T08:23:30;10.80;60.20
33271;DHT22;53180;51.344;6.152;2022-11-13T08:26:03;10.90;59.70
33271;DHT22;53180;51.344;6.152;2022-11-13T08:28:34;11.00;60.50
33271;DHT22;53180;51.344;6.152;2022-11-13T08:31:03;11.10;59.70
33271;DHT22;53180;51.344;6.152;2022-11-13T08:33:32;11.20;59.90
33271;DHT22;53180;51.344;6.152;2022-11-13T08:36:01;11.30;59.50
33271;DHT22;53180;51.344;6.152;2022-11-13T08:38:29;11.40;58.20
33271;DHT22;53180;51.344;6.152;2022-11-13T08:40:58;11.50;58.90
33271;DHT22;53180;51.344;6.152;2022-11-13T08:43:35;11.70;59.10
33271;DHT22;53180;51.344;6.152;2022-11-13T08:46:04;11.80;57.10
33271;DHT22;53180;51.344;6.152;2022-11-13T08:48:33;11.90;57.20
33271;DHT22;53180;51.344;6.152;2022-11-13T08:51:02;12.00;58.50
33271;DHT22;53180;51.344;6.152;2022-11-13T08:53:30;12.10;58.60
33271;DHT22;53180;51.344;6.152;2022-11-13T08:55:59;12.20;57.80
33271;DHT22;53180;51.344;6.152;2022-11-13T08:58:28;12.40;57.80
33271;DHT22;53180;51.344;6.152;2022-11-13T09:01:03;12.40;57.90
33271;DHT22;53180;51.344;6.152;2022-11-13T09:03:31;12.60;57.90
33271;DHT22;53180;51.344;6.152;2022-11-13T09:06:04;12.70;56.30
33271;DHT22;53180;51.344;6.152;2022-11-13T09:08:33;12.80;54.70
33271;DHT22;53180;51.344;6.152;2022-11-13T09:11:02;12.90;55.40
33271;DHT22;53180;51.344;6.152;2022-11-13T09:13:32;13.10;54.80
33271;DHT22;53180;51.344;6.152;2022-11-13T09:16:08;13.30;56.10
33271;DHT22;53180;51.344;6.152;2022-11-13T09:18:36;13.50;55.30
33271;DHT22;53180;51.344;6.152;2022-11-13T09:21:05;13.80;55.20
33271;DHT22;53180;51.344;6.152;2022-11-13T09:23:33;13.90;55.00
33271;DHT22;53180;51.344;6.152;2022-11-13T09:26:01;14.00;53.40
33271;DHT22;53180;51.344;6.152;2022-11-13T09:28:30;14.10;51.90
33271;DHT22;53180;51.344;6.152;2022-11-13T09:30:58;14.20;51.90
33271;DHT22;53180;51.344;6.152;2022-11-13T09:33:28;14.40;51.00
33271;DHT22;53180;51.344;6.152;2022-11-13T09:35:56;14.40;51.40
33271;DHT22;53180;51.344;6.152;2022-11-13T09:38:24;14.50;51.90
33271;DHT22;53180;51.344;6.152;2022-11-13T09:41:00;14.70;50.80
33271;DHT22;53180;51.344;6.152;2022-11-13T09:43:33;14.70;50.70
33271;DHT22;53180;51.344;6.152;2022-11-13T09:46:06;14.70;49.30
33271;DHT22;53180;51.344;6.152;2022-11-13T09:48:41;14.90;48.10
33271;DHT22;53180;51.344;6.152;2022-11-13T09:51:14;15.00;50.40
33271;DHT22;53180;51.344;6.152;2022-11-13T09:53:44;15.10;48.50
33271;DHT22;53180;51.344;6.152;2022-11-13T09:56:24;15.20;50.10
33271;DHT22;53180;51.344;6.152;2022-11-13T09:59:04;15.30;48.10
33271;DHT22;53180;51.344;6.152;2022-11-13T10:01:46;15.40;48.60
33271;DHT22;53180;51.344;6.152;2022-11-13T10:04:27;15.60;48.40
33271;DHT22;53180;51.344;6.152;2022-11-13T10:07:13;15.70;49.60
33271;DHT22;53180;51.344;6.152;2022-11-13T10:10:05;15.90;47.20
33271;DHT22;53180;51.344;6.152;2022-11-13T10:12:46;16.00;46.90
33271;DHT22;53180;51.344;6.152;2022-11-13T10:15:19;16.20;49.80
33271;DHT22;53180;51.344;6.152;2022-11-13T10:17:50;16.20;46.00
33271;DHT22;53180;51.344;6.152;2022-11-13T10:20:30;16.10;46.50
33271;DHT22;53180;51.344;6.152;2022-11-13T10:23:07;16.20;46.20
33271;DHT22;53180;51.344;6.152;2022-11-13T10:25:40;16.20;46.50
33271;DHT22;53180;51.344;6.152;2022-11-13T10:28:13;16.30;46.10
33271;DHT22;53180;51.344;6.152;2022-11-13T10:31:04;16.30;45.90
33271;DHT22;53180;51.344;6.152;2022-11-13T10:33:33;16.30;44.90
33271;DHT22;53180;51.344;6.152;2022-11-13T10:36:10;16.40;44.70
33271;DHT22;53180;51.344;6.152;2022-11-13T10:38:42;16.40;44.70
33271;DHT22;53180;51.344;6.152;2022-11-13T10:41:13;16.60;45.90
33271;DHT22;53180;51.344;6.152;2022-11-13T10:44:05;16.70;45.10
33271;DHT22;53180;51.344;6.152;2022-11-13T10:46:35;16.70;44.10
33271;DHT22;53180;51.344;6.152;2022-11-13T10:49:11;16.70;44.90
33271;DHT22;53180;51.344;6.152;2022-11-13T10:51:42;16.80;44.70
33271;DHT22;53180;51.344;6.152;2022-11-13T10:54:20;16.90;44.90
33271;DHT22;53180;51.344;6.152;2022-11-13T10:56:58;16.90;43.80
33271;DHT22;53180;51.344;6.152;2022-11-13T10:59:38;17.00;45.20
33271;DHT22;53180;51.344;6.152;2022-11-13T11:02:14;17.00;44.40
33271;DHT22;53180;51.344;6.152;2022-11-13T11:04:44;17.00;43.20
33271;DHT22;53180;51.344;6.152;2022-11-13T11:07:16;17.10;44.10
33271;DHT22;53180;51.344;6.152;2022-11-13T11:09:48;17.00;43.70
33271;DHT22;53180;51.344;6.152;2022-11-13T11:12:19;17.10;45.20
33271;DHT22;53180;51.344;6.152;2022-11-13T11:15:01;17.10;45.30
33271;DHT22;53180;51.344;6.152;2022-11-13T11:17:38;17.20;45.00
33271;DHT22;53180;51.344;6.152;2022-11-13T11:20:23;17.30;45.80
33271;DHT22;53180;51.344;6.152;2022-11-13T11:23:06;17.30;44.20
33271;DHT22;53180;51.344;6.152;2022-11-13T11:25:47;17.30;44.20
33271;DHT22;53180;51.344;6.152;2022-11-13T11:28:27;17.40;44.00
33271;DHT22;53180;51.344;6.152;2022-11-13T11:31:04;17.30;44.40
33271;DHT22;53180;51.344;6.152;2022-11-13T11:33:46;17.30;44.10
33271;DHT22;53180;51.344;6.152;2022-11-13T11:36:24;17.30;43.20
33271;DHT22;53180;51.344;6.152;2022-11-13T11:39:04;17.30;43.20
33271;DHT22;53180;51.344;6.152;2022-11-13T11:41:42;17.30;43.00
33271;DHT22;53180;51.344;6.152;2022-11-13T11:44:20;17.30;43.60
33271;DHT22;53180;51.344;6.152;2022-11-13T11:46:49;17.30;43.50
33271;DHT22;53180;51.344;6.152;2022-11-13T11:49:19;17.20;43.80
33271;DHT22;53180;51.344;6.152;2022-11-13T11:51:56;17.20;45.30
33271;DHT22;53180;51.344;6.152;2022-11-13T11:54:39;17.30;44.90
33271;DHT22;53180;51.344;6.152;2022-11-13T11:57:23;17.20;45.40
33271;DHT22;53180;51.344;6.152;2022-11-13T12:00:07;17.30;45.40
33271;DHT22;53180;51.344;6.152;2022-11-13T12:06:08;17.30;45.40
33271;DHT22;53180;51.344;6.152;2022-11-13T12:08:47;17.20;46.50
33271;DHT22;53180;51.344;6.152;2022-11-13T12:11:25;17.20;45.60
33271;DHT22;53180;51.344;6.152;2022-11-13T12:14:02;17.20;45.20
33271;DHT22;53180;51.344;6.152;2022-11-13T12:16:39;17.20;45.00
33271;DHT22;53180;51.344;6.152;2022-11-13T12:19:17;17.30;44.40
33271;DHT22;53180;51.344;6.152;2022-11-13T12:21:56;17.20;45.00
33271;DHT22;53180;51.344;6.152;2022-11-13T12:24:45;17.20;44.70
33271;DHT22;53180;51.344;6.152;2022-11-13T12:27:29;17.10;44.20
33271;DHT22;53180;51.344;6.152;2022-11-13T12:30:08;17.10;43.70
33271;DHT22;53180;51.344;6.152;2022-11-13T12:32:55;17.00;45.00
33271;DHT22;53180;51.344;6.152;2022-11-13T12:35:30;17.00;43.90
33271;DHT22;53180;51.344;6.152;2022-11-13T12:38:04;16.90;43.20
33271;DHT22;53180;51.344;6.152;2022-11-13T12:40:44;16.90;43.90
33271;DHT22;53180;51.344;6.152;2022-11-13T12:43:46;16.90;43.60
33271;DHT22;53180;51.344;6.152;2022-11-13T12:46:33;16.90;43.50
33271;DHT22;53180;51.344;6.152;2022-11-13T12:49:15;16.90;42.50
33271;DHT22;53180;51.344;6.152;2022-11-13T12:51:55;16.90;41.70
33271;DHT22;53180;51.344;6.152;2022-11-13T12:54:28;16.80;43.00
33271;DHT22;53180;51.344;6.152;2022-11-13T12:57:22;16.80;41.90
33271;DHT22;53180;51.344;6.152;2022-11-13T13:00:08;16.70;43.20
33271;DHT22;53180;51.344;6.152;2022-11-13T13:02:49;16.70;42.30
33271;DHT22;53180;51.344;6.152;2022-11-13T13:05:32;16.70;42.90
33271;DHT22;53180;51.344;6.152;2022-11-13T13:08:37;16.70;43.00
33271;DHT22;53180;51.344;6.152;2022-11-13T13:11:19;16.70;44.10
33271;DHT22;53180;51.344;6.152;2022-11-13T13:14:04;16.60;44.70
33271;DHT22;53180;51.344;6.152;2022-11-13T13:16:44;16.70;44.60
33271;DHT22;53180;51.344;6.152;2022-11-13T13:19:24;16.60;44.40
33271;DHT22;53180;51.344;6.152;2022-11-13T13:21:54;16.60;44.40
33271;DHT22;53180;51.344;6.152;2022-11-13T13:24:28;16.50;43.20
33271;DHT22;53180;51.344;6.152;2022-11-13T13:26:58;16.50;43.60
33271;DHT22;53180;51.344;6.152;2022-11-13T13:29:28;16.50;44.10
33271;DHT22;53180;51.344;6.152;2022-11-13T13:32:05;16.50;44.10
33271;DHT22;53180;51.344;6.152;2022-11-13T13:34:53;16.50;44.60
33271;DHT22;53180;51.344;6.152;2022-11-13T13:37:28;16.40;44.00
33271;DHT22;53180;51.344;6.152;2022-11-13T13:40:12;16.30;45.60
33271;DHT22;53180;51.344;6.152;2022-11-13T13:43:04;16.30;45.40
33271;DHT22;53180;51.344;6.152;2022-11-13T13:45:45;16.20;44.30
33271;DHT22;53180;51.344;6.152;2022-11-13T13:48:23;16.20;45.80
33271;DHT22;53180;51.344;6.152;2022-11-13T13:50:53;16.20;45.10
33271;DHT22;53180;51.344;6.152;2022-11-13T13:53:25;16.10;44.70
33271;DHT22;53180;51.344;6.152;2022-11-13T13:55:56;16.10;44.90
33271;DHT22;53180;51.344;6.152;2022-11-13T13:58:27;16.00;45.40
33271;DHT22;53180;51.344;6.152;2022-11-13T14:00:59;16.00;45.70
33271;DHT22;53180;51.344;6.152;2022-11-13T14:03:46;16.00;45.00
33271;DHT22;53180;51.344;6.152;2022-11-13T14:06:18;15.90;44.30
33271;DHT22;53180;51.344;6.152;2022-11-13T14:08:48;15.90;44.80
33271;DHT22;53180;51.344;6.152;2022-11-13T14:11:18;15.80;44.70
33271;DHT22;53180;51.344;6.152;2022-11-13T14:13:48;15.80;44.80
33271;DHT22;53180;51.344;6.152;2022-11-13T14:16:16;15.80;45.20
33271;DHT22;53180;51.344;6.152;2022-11-13T14:18:46;15.80;44.90
33271;DHT22;53180;51.344;6.152;2022-11-13T14:21:16;15.80;45.50
33271;DHT22;53180;51.344;6.152;2022-11-13T14:23:49;15.70;45.40
33271;DHT22;53180;51.344;6.152;2022-11-13T14:26:19;15.70;45.00
33271;DHT22;53180;51.344;6.152;2022-11-13T14:28:53;15.60;46.40
33271;DHT22;53180;51.344;6.152;2022-11-13T14:31:26;15.60;46.00
33271;DHT22;53180;51.344;6.152;2022-11-13T14:34:00;15.60;46.60
33271;DHT22;53180;51.344;6.152;2022-11-13T14:36:31;15.50;46.40
33271;DHT22;53180;51.344;6.152;2022-11-13T14:39:01;15.50;46.70
33271;DHT22;53180;51.344;6.152;2022-11-13T14:41:32;15.40;45.90
33271;DHT22;53180;51.344;6.152;2022-11-13T14:44:03;15.40;46.20
33271;DHT22;53180;51.344;6.152;2022-11-13T14:46:34;15.40;47.60
33271;DHT22;53180;51.344;6.152;2022-11-13T14:49:12;15.30;47.90
33271;DHT22;53180;51.344;6.152;2022-11-13T14:51:41;15.30;46.80
33271;DHT22;53180;51.344;6.152;2022-11-13T14:54:26;15.20;49.20
33271;DHT22;53180;51.344;6.152;2022-11-13T14:57:16;15.10;50.50
33271;DHT22;53180;51.344;6.152;2022-11-13T14:59:44;15.00;50.80
33271;DHT22;53180;51.344;6.152;2022-11-13T15:02:12;15.00;50.70
33271;DHT22;53180;51.344;6.152;2022-11-13T15:04:42;14.90;50.20
33271;DHT22;53180;51.344;6.152;2022-11-13T15:07:25;14.80;51.80
33271;DHT22;53180;51.344;6.152;2022-11-13T15:09:56;14.80;52.40
33271;DHT22;53180;51.344;6.152;2022-11-13T15:12:24;14.70;51.40
33271;DHT22;53180;51.344;6.152;2022-11-13T15:14:52;14.70;51.20
33271;DHT22;53180;51.344;6.152;2022-11-13T15:17:21;14.60;51.80
33271;DHT22;53180;51.344;6.152;2022-11-13T15:19:52;14.50;54.40
33271;DHT22;53180;51.344;6.152;2022-11-13T15:22:21;14.30;55.90
33271;DHT22;53180;51.344;6.152;2022-11-13T15:24:54;14.20;56.50
33271;DHT22;53180;51.344;6.152;2022-11-13T15:27:22;14.00;57.20
33271;DHT22;53180;51.344;6.152;2022-11-13T15:29:51;14.00;57.80
33271;DHT22;53180;51.344;6.152;2022-11-13T15:32:33;13.90;58.40
33271;DHT22;53180;51.344;6.152;2022-11-13T15:35:04;13.80;58.30
33271;DHT22;53180;51.344;6.152;2022-11-13T15:37:33;13.80;58.70
33271;DHT22;53180;51.344;6.152;2022-11-13T15:40:01;13.70;58.40
33271;DHT22;53180;51.344;6.152;2022-11-13T15:42:34;13.50;59.50
33271;DHT22;53180;51.344;6.152;2022-11-13T15:45:08;13.30;60.40
33271;DHT22;53180;51.344;6.152;2022-11-13T15:47:40;13.00;60.30
33271;DHT22;53180;51.344;6.152;2022-11-13T15:50:10;12.80;61.30
33271;DHT22;53180;51.344;6.152;2022-11-13T15:52:44;12.60;62.00
33271;DHT22;53180;51.344;6.152;2022-11-13T15:55:20;12.40;63.00
33271;DHT22;53180;51.344;6.152;2022-11-13T15:57:52;12.30;63.90
33271;DHT22;53180;51.344;6.152;2022-11-13T16:00:22;12.20;64.10
33271;DHT22;53180;51.344;6.152;2022-11-13T16:02:53;12.10;64.30
33271;DHT22;53180;51.344;6.152;2022-11-13T16:05:26;11.80;65.80
33271;DHT22;53180;51.344;6.152;2022-11-13T16:07:55;11.70;66.40
33271;DHT22;53180;51.344;6.152;2022-11-13T16:10:24;11.70;66.20
33271;DHT22;53180;51.344;6.152;2022-11-13T16:12:52;11.70;66.70